sensor_id;sensor_type;location;lat;lon;timestamp;pressure;altitude;pressure_sealevel;temperature;humidity
37764;BME280;23602;51.084;7.090;2023-02-18T00:00:52;100900.16;;;9.99;100.00
37764;BME280;23602;51.084;7.090;2023-02-18T00:03:17;100903.38;;;9.94;100.00
37764;BME280;23602;51.084;7.090;2023-02-18T00:05:42;100909.03;;;9.99;100.00
37764;BME280;23602;51.084;7.090;2023-02-18T00:08:08;100902.19;;;9.97;100.00
37764;BME280;23602;51.084;7.090;2023-02-18T00:10:33;100906.19;;;10.01;100.00
37764;BME280;23602;51.084;7.090;2023-02-18T00:12:58;100914.81;;;9.96;100.00
37764;BME280;23602;51.084;7.090;2023-02-18T00:15:25;100906.91;;;9.95;100.00
37764;BME280;23602;51.084;7.090;2023-02-18T00:17:50;100908.59;;;9.96;100.00
37764;BME280;23602;51.084;7.090;2023-02-18T00:20:16;100904.88;;;9.97;100.00
37764;BME280;23602;51.084;7.090;2023-02-18T00:22:41;100908.75;;;9.94;100.00
37764;BME280;23602;51.084;7.090;2023-02-18T00:25:06;100897.84;;;9.96;100.00
37764;BME280;23602;51.084;7.090;2023-02-18T00:27:32;100906.06;;;9.94;100.00
37764;BME280;23602;51.084;7.090;2023-02-18T00:29:57;100905.28;;;9.94;100.00
37764;BME280;23602;51.084;7.090;2023-02-18T00:32:23;100909.16;;;9.91;100.00
37764;BME280;23602;51.084;7.090;2023-02-18T00:34:48;100906.28;;;9.93;100.00
37764;BME280;23602;51.084;7.090;2023-02-18T00:37:13;100902.59;;;9.94;100.00
37764;BME280;23602;51.084;7.090;2023-02-18T00:39:39;100889.53;;;9.91;100.00
37764;BME280;23602;51.084;7.090;2023-02-18T00:42:04;100888.69;;;9.90;100.00
37764;BME280;23602;51.084;7.090;2023-02-18T00:44:31;100880.53;;;9.98;100.00
37764;BME280;23602;51.084;7.090;2023-02-18T00:46:56;100872.38;;;9.92;100.00
37764;BME280;23602;51.084;7.090;2023-02-18T00:49:22;100880.84;;;9.89;100.00
37764;BME280;23602;51.084;7.090;2023-02-18T00:51:47;100883.53;;;9.89;100.00
37764;BME280;23602;51.084;7.090;2023-02-18T00:54:12;100889.91;;;9.88;100.00
37764;BME280;23602;51.084;7.090;2023-02-18T00:56:37;100885.81;;;9.92;100.00
37764;BME280;23602;51.084;7.090;2023-02-18T00:59:03;100880.44;;;9.92;100.00
37764;BME280;23602;51.084;7.090;2023-02-18T01:01:28;100876.28;;;9.89;100.00
37764;BME280;23602;51.084;7.090;2023-02-18T01:03:54;100869.63;;;9.85;100.00
37764;BME280;23602;51.084;7.090;2023-02-18T01:06:19;100875.53;;;9.95;100.00
37764;BME280;23602;51.084;7.090;2023-02-18T01:08:46;100872.78;;;9.89;100.00
37764;BME280;23602;51.084;7.090;2023-02-18T01:11:11;100866.38;;;9.90;100.00
37764;BME280;23602;51.084;7.090;2023-02-18T01:13:37;100866.56;;;9.88;100.00
37764;BME280;23602;51.084;7.090;2023-02-18T01:16:03;100871.09;;;9.88;100.00
37764;BME280;23602;51.084;7.090;2023-02-18T01:18:28;100871.09;;;9.88;100.00
37764;BME280;23602;51.084;7.090;2023-02-18T01:20:53;100868.41;;;9.88;100.00
37764;BME280;23602;51.084;7.090;2023-02-18T01:23:19;100865.53;;;9.89;100.00
37764;BME280;23602;51.084;7.090;2023-02-18T01:25:44;100864.06;;;9.87;100.00
37764;BME280;23602;51.084;7.090;2023-02-18T01:28:11;100859.72;;;9.86;100.00
37764;BME280;23602;51.084;7.090;2023-02-18T01:30:37;100872.50;;;9.84;100.00
37764;BME280;23602;51.084;7.090;2023-02-18T01:33:02;100863.78;;;9.82;100.00
37764;BME280;23602;51.084;7.090;2023-02-18T01:35:27;100861.38;;;9.87;100.00
37764;BME280;23602;51.084;7.090;2023-02-18T01:37:53;100850.47;;;9.88;100.00
37764;BME280;23602;51.084;7.090;2023-02-18T01:40:19;100854.34;;;9.86;100.00
37764;BME280;23602;51.084;7.090;2023-02-18T01:42:45;100849.44;;;9.89;100.00
37764;BME280;23602;51.084;7.090;2023-02-18T01:47:55;100844.91;;;9.90;100.00
37764;BME280;23602;51.084;7.090;2023-02-18T01:50:20;100837.03;;;9.88;100.00
37764;BME280;23602;51.084;7.090;2023-02-18T01:52:45;100841.56;;;9.88;100.00
37764;BME280;23602;51.084;7.090;2023-02-18T01:55:11;100836.22;;;9.88;100.00
37764;BME280;23602;51.084;7.090;2023-02-18T01:57:36;100830.84;;;9.88;100.00
37764;BME280;23602;51.084;7.090;2023-02-18T02:00:07;100830.47;;;9.91;100.00
37764;BME280;23602;51.084;7.090;2023-02-18T02:02:36;100824.06;;;9.92;100.00
37764;BME280;23602;51.084;7.090;2023-02-18T02:05:03;100810.00;;;9.90;100.00
37764;BME280;23602;51.084;7.090;2023-02-18T02:07:28;100813.72;;;9.89;100.00
37764;BME280;23602;51.084;7.090;2023-02-18T02:09:54;100810.38;;;9.87;100.00
37764;BME280;23602;51.084;7.090;2023-02-18T02:17:45;100794.94;;;9.89;100.00
37764;BME280;23602;51.084;7.090;2023-02-18T02:20:18;100788.34;;;9.91;100.00
37764;BME280;23602;51.084;7.090;2023-02-18T02:25:33;100797.63;;;9.89;100.00
37764;BME280;23602;51.084;7.090;2023-02-18T02:28:09;100798.56;;;9.81;100.00
37764;BME280;23602;51.084;7.090;2023-02-18T02:33:13;100802.44;;;9.79;100.00
37764;BME280;23602;51.084;7.090;2023-02-18T02:35:49;100807.34;;;9.75;100.00
37764;BME280;23602;51.084;7.090;2023-02-18T02:38:21;100805.69;;;9.74;100.00
37764;BME280;23602;51.084;7.090;2023-02-18T02:43:39;100813.09;;;9.72;100.00
37764;BME280;23602;51.084;7.090;2023-02-18T02:48:56;100811.63;;;9.70;100.00
37764;BME280;23602;51.084;7.090;2023-02-18T02:51:24;100818.81;;;9.69;100.00
37764;BME280;23602;51.084;7.090;2023-02-18T02:53:52;100822.72;;;9.67;100.00
37764;BME280;23602;51.084;7.090;2023-02-18T02:56:22;100832.16;;;9.63;100.00
37764;BME280;23602;51.084;7.090;2023-02-18T02:58:58;100836.50;;;9.64;100.00
37764;BME280;23602;51.084;7.090;2023-02-18T03:04:20;100828.91;;;9.67;100.00
37764;BME280;23602;51.084;7.090;2023-02-18T03:11:57;100840.03;;;9.64;100.00
37764;BME280;23602;51.084;7.090;2023-02-18T03:14:35;100835.69;;;9.63;100.00
37764;BME280;23602;51.084;7.090;2023-02-18T03:19:45;100839.59;;;9.61;100.00
37764;BME280;23602;51.084;7.090;2023-02-18T03:24:40;100834.66;;;9.64;100.00
37764;BME280;23602;51.084;7.090;2023-02-18T03:29:41;100829.28;;;9.64;100.00
37764;BME280;23602;51.084;7.090;2023-02-18T03:32:08;100824.75;;;9.65;100.00
37764;BME280;23602;51.084;7.090;2023-02-18T03:34:37;100818.00;;;9.69;100.00
37764;BME280;23602;51.084;7.090;2023-02-18T03:37:03;100824.41;;;9.68;100.00
37764;BME280;23602;51.084;7.090;2023-02-18T03:39:30;100821.50;;;9.69;100.00
37764;BME280;23602;51.084;7.090;2023-02-18T03:41:57;100825.22;;;9.68;100.00
37764;BME280;23602;51.084;7.090;2023-02-18T03:44:23;100817.63;;;9.72;100.00
37764;BME280;23602;51.084;7.090;2023-02-18T03:46:48;100816.97;;;9.70;100.00
37764;BME280;23602;51.084;7.090;2023-02-18T03:49:14;100811.81;;;9.68;100.00
37764;BME280;23602;51.084;7.090;2023-02-18T03:51:39;100808.09;;;9.69;100.00
37764;BME280;23602;51.084;7.090;2023-02-18T03:54:04;100803.75;;;9.68;100.00
37764;BME280;23602;51.084;7.090;2023-02-18T03:56:30;100797.56;;;9.68;100.00
37764;BME280;23602;51.084;7.090;2023-02-18T03:58:55;100801.44;;;9.65;100.00
37764;BME280;23602;51.084;7.090;2023-02-18T04:01:20;100810.69;;;9.63;100.00
37764;BME280;23602;51.084;7.090;2023-02-18T04:03:46;100806.97;;;9.64;100.00
37764;BME280;23602;51.084;7.090;2023-02-18T04:06:11;100816.06;;;9.63;100.00
37764;BME280;23602;51.084;7.090;2023-02-18T04:08:36;100807.38;;;9.61;100.00
37764;BME280;23602;51.084;7.090;2023-02-18T04:11:02;100817.44;;;9.59;100.00
37764;BME280;23602;51.084;7.090;2023-02-18T04:13:27;100807.56;;;9.59;100.00
37764;BME280;23602;51.084;7.090;2023-02-18T04:15:52;100813.47;;;9.54;100.00
37764;BME280;23602;51.084;7.090;2023-02-18T04:18:17;100820.91;;;9.52;100.00
37764;BME280;23602;51.084;7.090;2023-02-18T04:20:43;100826.63;;;9.49;100.00
37764;BME280;23602;51.084;7.090;2023-02-18T04:23:10;100826.34;;;9.59;100.00
37764;BME280;23602;51.084;7.090;2023-02-18T04:25:35;100823.38;;;9.54;100.00
37764;BME280;23602;51.084;7.090;2023-02-18T04:28:00;100827.91;;;9.53;100.00
37764;BME280;23602;51.084;7.090;2023-02-18T04:30:26;100820.53;;;9.56;100.00
37764;BME280;23602;51.084;7.090;2023-02-18T04:32:52;100827.63;;;9.48;100.00
37764;BME280;23602;51.084;7.090;2023-02-18T04:35:17;100831.72;;;9.44;100.00
37764;BME280;23602;51.084;7.090;2023-02-18T04:37:43;100851.97;;;9.47;100.00
37764;BME280;23602;51.084;7.090;2023-02-18T04:40:08;100862.91;;;9.45;100.00
37764;BME280;23602;51.084;7.090;2023-02-18T04:42:34;100874.00;;;9.42;100.00
37764;BME280;23602;51.084;7.090;2023-02-18T04:44:59;100872.69;;;9.38;100.00
37764;BME280;23602;51.084;7.090;2023-02-18T04:47:24;100873.72;;;9.37;100.00
37764;BME280;23602;51.084;7.090;2023-02-18T04:49:50;100878.88;;;9.39;100.00
37764;BME280;23602;51.084;7.090;2023-02-18T04:52:15;100870.66;;;9.40;100.00
37764;BME280;23602;51.084;7.090;2023-02-18T04:54:40;100874.63;;;9.44;100.00
37764;BME280;23602;51.084;7.090;2023-02-18T04:57:06;100876.03;;;9.40;100.00
37764;BME280;23602;51.084;7.090;2023-02-18T04:59:31;100869.19;;;9.38;100.00
37764;BME280;23602;51.084;7.090;2023-02-18T05:01:56;100868.34;;;9.37;100.00
37764;BME280;23602;51.084;7.090;2023-02-18T05:04:22;100871.03;;;9.37;100.00
37764;BME280;23602;51.084;7.090;2023-02-18T05:06:47;100880.28;;;9.35;100.00
37764;BME280;23602;51.084;7.090;2023-02-18T05:09:13;100876.97;;;9.33;100.00
37764;BME280;23602;51.084;7.090;2023-02-18T05:11:38;100882.97;;;9.35;100.00
37764;BME280;23602;51.084;7.090;2023-02-18T05:14:04;100882.13;;;9.34;100.00
37764;BME280;23602;51.084;7.090;2023-02-18T05:16:29;100882.75;;;9.36;100.00
37764;BME280;23602;51.084;7.090;2023-02-18T05:18:55;100868.34;;;9.37;100.00
37764;BME280;23602;51.084;7.090;2023-02-18T05:21:20;100867.16;;;9.40;100.00
37764;BME280;23602;51.084;7.090;2023-02-18T05:23:45;100869.72;;;9.33;100.00
37764;BME280;23602;51.084;7.090;2023-02-18T05:26:11;100866.41;;;9.31;100.00
37764;BME280;23602;51.084;7.090;2023-02-18T05:28:37;100860.94;;;9.39;100.00
37764;BME280;23602;51.084;7.090;2023-02-18T05:31:02;100865.03;;;9.35;100.00
37764;BME280;23602;51.084;7.090;2023-02-18T05:33:27;100867.78;;;9.27;100.00
37764;BME280;23602;51.084;7.090;2023-02-18T05:35:53;100857.22;;;9.26;100.00
37764;BME280;23602;51.084;7.090;2023-02-18T05:38:19;100852.69;;;9.26;100.00
37764;BME280;23602;51.084;7.090;2023-02-18T05:40:44;100847.69;;;9.23;100.00
37764;BME280;23602;51.084;7.090;2023-02-18T05:43:09;100846.91;;;9.23;100.00
37764;BME280;23602;51.084;7.090;2023-02-18T05:45:35;100849.38;;;9.24;100.00
37764;BME280;23602;51.084;7.090;2023-02-18T05:48:00;100846.50;;;9.26;100.00
37764;BME280;23602;51.084;7.090;2023-02-18T05:50:25;100840.84;;;9.21;100.00
37764;BME280;23602;51.084;7.090;2023-02-18T05:52:51;100834.97;;;9.25;100.00
37764;BME280;23602;51.084;7.090;2023-02-18T05:55:16;100827.44;;;9.21;100.00
37764;BME280;23602;51.084;7.090;2023-02-18T05:57:42;100828.28;;;9.21;100.00
37764;BME280;23602;51.084;7.090;2023-02-18T06:00:07;100823.75;;;9.22;100.00
37764;BME280;23602;51.084;7.090;2023-02-18T06:02:36;100834.28;;;9.23;100.00
37764;BME280;23602;51.084;7.090;2023-02-18T06:05:01;100829.13;;;9.22;100.00
37764;BME280;23602;51.084;7.090;2023-02-18T06:07:27;100835.13;;;9.24;100.00
37764;BME280;23602;51.084;7.090;2023-02-18T06:09:52;100819.41;;;9.21;100.00
37764;BME280;23602;51.084;7.090;2023-02-18T06:12:18;100817.91;;;9.18;100.00
37764;BME280;23602;51.084;7.090;2023-02-18T06:14:43;100822.28;;;9.19;100.00
37764;BME280;23602;51.084;7.090;2023-02-18T06:17:08;100824.59;;;9.22;100.00
37764;BME280;23602;51.084;7.090;2023-02-18T06:19:35;100827.44;;;9.21;100.00
37764;BME280;23602;51.084;7.090;2023-02-18T06:22:00;100826.16;;;9.17;100.00
37764;BME280;23602;51.084;7.090;2023-02-18T06:24:26;100823.28;;;9.18;100.00
37764;BME280;23602;51.084;7.090;2023-02-18T06:26:51;100827.34;;;9.14;100.00
37764;BME280;23602;51.084;7.090;2023-02-18T06:29:17;100830.22;;;9.13;100.00
37764;BME280;23602;51.084;7.090;2023-02-18T06:31:42;100819.47;;;9.13;100.00
37764;BME280;23602;51.084;7.090;2023-02-18T06:34:07;100830.88;;;9.15;100.00
37764;BME280;23602;51.084;7.090;2023-02-18T06:36:33;100839.28;;;9.12;100.00
37764;BME280;23602;51.084;7.090;2023-02-18T06:38:58;100834.75;;;9.12;100.00
37764;BME280;23602;51.084;7.090;2023-02-18T06:41:23;100827.72;;;9.11;100.00
37764;BME280;23602;51.084;7.090;2023-02-18T06:43:49;100832.25;;;9.11;100.00
37764;BME280;23602;51.084;7.090;2023-02-18T06:46:14;100834.28;;;9.09;100.00
37764;BME280;23602;51.084;7.090;2023-02-18T06:48:39;100832.16;;;9.04;100.00
37764;BME280;23602;51.084;7.090;2023-02-18T06:51:05;100841.03;;;9.05;100.00
37764;BME280;23602;51.084;7.090;2023-02-18T06:53:30;100829.28;;;9.06;100.00
37764;BME280;23602;51.084;7.090;2023-02-18T06:55:56;100816.72;;;9.06;100.00
37764;BME280;23602;51.084;7.090;2023-02-18T06:58:21;100815.22;;;9.04;100.00
37764;BME280;23602;51.084;7.090;2023-02-18T07:00:47;100816.06;;;9.04;100.00
37764;BME280;23602;51.084;7.090;2023-02-18T07:03:12;100837.97;;;9.08;100.00
37764;BME280;23602;51.084;7.090;2023-02-18T07:05:38;100818.47;;;8.99;100.00
37764;BME280;23602;51.084;7.090;2023-02-18T07:08:04;100829.19;;;8.99;100.00
37764;BME280;23602;51.084;7.090;2023-02-18T07:10:29;100825.47;;;9.00;100.00
37764;BME280;23602;51.084;7.090;2023-02-18T07:12:54;100820.50;;;8.97;100.00
37764;BME280;23602;51.084;7.090;2023-02-18T07:15:20;100809.03;;;9.03;100.00
37764;BME280;23602;51.084;7.090;2023-02-18T07:17:48;100830.69;;;9.02;100.00
37764;BME280;23602;51.084;7.090;2023-02-18T07:20:13;100826.78;;;9.04;100.00
37764;BME280;23602;51.084;7.090;2023-02-18T07:22:39;100825.31;;;9.02;100.00
37764;BME280;23602;51.084;7.090;2023-02-18T07:25:04;100831.13;;;9.05;100.00
37764;BME280;23602;51.084;7.090;2023-02-18T07:27:30;100808.19;;;9.03;100.00
37764;BME280;23602;51.084;7.090;2023-02-18T07:29:55;100812.34;;;9.05;100.00
37764;BME280;23602;51.084;7.090;2023-02-18T07:32:21;100806.19;;;9.05;100.00
37764;BME280;23602;51.084;7.090;2023-02-18T07:34:46;100796.94;;;9.07;100.00
37764;BME280;23602;51.084;7.090;2023-02-18T07:37:11;100792.22;;;9.09;100.00
37764;BME280;23602;51.084;7.090;2023-02-18T07:39:41;100791.88;;;9.12;100.00
37764;BME280;23602;51.084;7.090;2023-02-18T07:42:06;100777.69;;;9.18;100.00
37764;BME280;23602;51.084;7.090;2023-02-18T07:44:32;100765.97;;;9.19;100.00
37764;BME280;23602;51.084;7.090;2023-02-18T07:46:57;100760.25;;;9.22;100.00
37764;BME280;23602;51.084;7.090;2023-02-18T07:49:22;100737.59;;;9.25;100.00
37764;BME280;23602;51.084;7.090;2023-02-18T07:51:48;100728.78;;;9.31;100.00
37764;BME280;23602;51.084;7.090;2023-02-18T07:54:14;100722.41;;;9.32;100.00
37764;BME280;23602;51.084;7.090;2023-02-18T07:56:39;100713.50;;;9.31;100.00
37764;BME280;23602;51.084;7.090;2023-02-18T07:59:07;100711.88;;;9.30;100.00
37764;BME280;23602;51.084;7.090;2023-02-18T08:01:33;100684.78;;;9.25;100.00
37764;BME280;23602;51.084;7.090;2023-02-18T08:04:04;100693.56;;;9.19;100.00
37764;BME280;23602;51.084;7.090;2023-02-18T08:06:32;100716.38;;;9.15;100.00
37764;BME280;23602;51.084;7.090;2023-02-18T08:08:57;100732.88;;;9.12;100.00
37764;BME280;23602;51.084;7.090;2023-02-18T08:11:23;100733.88;;;9.11;100.00
37764;BME280;23602;51.084;7.090;2023-02-18T08:13:48;100743.41;;;8.99;100.00
37764;BME280;23602;51.084;7.090;2023-02-18T08:16:15;100718.38;;;8.92;100.00
37764;BME280;23602;51.084;7.090;2023-02-18T08:18:41;100715.56;;;8.85;100.00
37764;BME280;23602;51.084;7.090;2023-02-18T08:21:06;100703.22;;;8.84;100.00
37764;BME280;23602;51.084;7.090;2023-02-18T08:23:34;100699.13;;;8.88;100.00
37764;BME280;23602;51.084;7.090;2023-02-18T08:25:59;100697.94;;;8.91;100.00
37764;BME280;23602;51.084;7.090;2023-02-18T08:28:25;100682.13;;;8.96;100.00
37764;BME280;23602;51.084;7.090;2023-02-18T08:30:51;100677.97;;;8.94;100.00
37764;BME280;23602;51.084;7.090;2023-02-18T08:33:17;100679.38;;;8.89;100.00
37764;BME280;23602;51.084;7.090;2023-02-18T08:35:45;100685.25;;;8.85;100.00
37764;BME280;23602;51.084;7.090;2023-02-18T08:38:13;100694.50;;;8.82;100.00
37764;BME280;23602;51.084;7.090;2023-02-18T08:40:38;100707.19;;;8.74;100.00
37764;BME280;23602;51.084;7.090;2023-02-18T08:43:05;100711.63;;;8.67;100.00
37764;BME280;23602;51.084;7.090;2023-02-18T08:45:33;100699.78;;;8.61;100.00
37764;BME280;23602;51.084;7.090;2023-02-18T08:47:58;100713.06;;;8.55;100.00
37764;BME280;23602;51.084;7.090;2023-02-18T08:50:24;100721.94;;;8.55;100.00
37764;BME280;23602;51.084;7.090;2023-02-18T08:52:53;100713.81;;;8.49;100.00
37764;BME280;23602;51.084;7.090;2023-02-18T08:55:21;100723.84;;;8.47;100.00
37764;BME280;23602;51.084;7.090;2023-02-18T08:57:50;100737.06;;;8.48;100.00
37764;BME280;23602;51.084;7.090;2023-02-18T09:00:16;100733.25;;;8.43;100.00
37764;BME280;23602;51.084;7.090;2023-02-18T09:02:41;100723.13;;;8.53;100.00
37764;BME280;23602;51.084;7.090;2023-02-18T09:05:07;100713.53;;;8.58;100.00
37764;BME280;23602;51.084;7.090;2023-02-18T09:07:35;100711.78;;;8.65;100.00
37764;BME280;23602;51.084;7.090;2023-02-18T09:10:00;100705.88;;;8.70;100.00
37764;BME280;23602;51.084;7.090;2023-02-18T09:12:27;100690.34;;;8.80;100.00
37764;BME280;23602;51.084;7.090;2023-02-18T09:14:52;100685.94;;;8.87;100.00
37764;BME280;23602;51.084;7.090;2023-02-18T09:17:17;100689.53;;;8.94;100.00
37764;BME280;23602;51.084;7.090;2023-02-18T09:19:43;100674.81;;;8.90;100.00
37764;BME280;23602;51.084;7.090;2023-02-18T09:22:08;100653.50;;;8.82;100.00
37764;BME280;23602;51.084;7.090;2023-02-18T09:24:37;100663.38;;;8.81;100.00
37764;BME280;23602;51.084;7.090;2023-02-18T09:27:03;100645.53;;;8.74;100.00
37764;BME280;23602;51.084;7.090;2023-02-18T09:29:29;100668.34;;;8.70;100.00
37764;BME280;23602;51.084;7.090;2023-02-18T09:32:01;100650.06;;;8.73;100.00
37764;BME280;23602;51.084;7.090;2023-02-18T09:34:26;100669.31;;;8.77;100.00
37764;BME280;23602;51.084;7.090;2023-02-18T09:36:52;100657.38;;;8.79;100.00
37764;BME280;23602;51.084;7.090;2023-02-18T09:39:17;100638.41;;;8.81;100.00
37764;BME280;23602;51.084;7.090;2023-02-18T09:41:47;100616.25;;;8.87;100.00
37764;BME280;23602;51.084;7.090;2023-02-18T09:47:08;100616.63;;;8.84;100.00
37764;BME280;23602;51.084;7.090;2023-02-18T09:49:37;100601.75;;;8.81;100.00
37764;BME280;23602;51.084;7.090;2023-02-18T09:52:15;100602.56;;;8.82;100.00
37764;BME280;23602;51.084;7.090;2023-02-18T09:54:43;100605.25;;;8.82;100.00
37764;BME280;23602;51.084;7.090;2023-02-18T09:57:17;100610.06;;;8.86;100.00
37764;BME280;23602;51.084;7.090;2023-02-18T09:59:46;100614.84;;;8.91;100.00
37764;BME280;23602;51.084;7.090;2023-02-18T10:02:13;100591.09;;;8.88;100.00
37764;BME280;23602;51.084;7.090;2023-02-18T10:04:42;100601.44;;;8.91;100.00
37764;BME280;23602;51.084;7.090;2023-02-18T10:07:36;100594.81;;;8.87;100.00
37764;BME280;23602;51.084;7.090;2023-02-18T10:10:02;100598.56;;;8.93;100.00
37764;BME280;23602;51.084;7.090;2023-02-18T10:12:32;100596.44;;;8.88;100.00
37764;BME280;23602;51.084;7.090;2023-02-18T10:14:59;100582.78;;;8.83;100.00
37764;BME280;23602;51.084;7.090;2023-02-18T10:17:26;100580.75;;;8.85;100.00
37764;BME280;23602;51.084;7.090;2023-02-18T10:19:56;100592.41;;;8.92;100.00
37764;BME280;23602;51.084;7.090;2023-02-18T10:22:24;100588.69;;;8.93;100.00
37764;BME280;23602;51.084;7.090;2023-02-18T10:25:20;100603.84;;;8.86;100.00
37764;BME280;23602;51.084;7.090;2023-02-18T10:27:53;100592.50;;;8.84;100.00
37764;BME280;23602;51.084;7.090;2023-02-18T10:30:32;100581.78;;;8.84;100.00
37764;BME280;23602;51.084;7.090;2023-02-18T10:33:01;100574.09;;;8.81;100.00
37764;BME280;23602;51.084;7.090;2023-02-18T10:38:01;100581.56;;;8.85;100.00
37764;BME280;23602;51.084;7.090;2023-02-18T10:43:15;100589.25;;;8.88;100.00
37764;BME280;23602;51.084;7.090;2023-02-18T10:48:36;100606.44;;;8.94;100.00
37764;BME280;23602;51.084;7.090;2023-02-18T10:51:14;100601.97;;;9.01;100.00
37764;BME280;23602;51.084;7.090;2023-02-18T10:53:41;100616.38;;;9.00;100.00
37764;BME280;23602;51.084;7.090;2023-02-18T10:56:08;100623.34;;;8.95;100.00
37764;BME280;23602;51.084;7.090;2023-02-18T10:58:53;100634.53;;;8.83;100.00
37764;BME280;23602;51.084;7.090;2023-02-18T11:01:26;100654.88;;;8.78;100.00
37764;BME280;23602;51.084;7.090;2023-02-18T11:04:13;100671.69;;;8.72;100.00
37764;BME280;23602;51.084;7.090;2023-02-18T11:06:43;100689.41;;;8.73;100.00
37764;BME280;23602;51.084;7.090;2023-02-18T11:11:51;100697.19;;;8.68;100.00
37764;BME280;23602;51.084;7.090;2023-02-18T11:14:34;100709.09;;;8.65;100.00
37764;BME280;23602;51.084;7.090;2023-02-18T11:17:08;100696.06;;;8.62;100.00
37764;BME280;23602;51.084;7.090;2023-02-18T11:19:34;100700.63;;;8.62;100.00
37764;BME280;23602;51.084;7.090;2023-02-18T11:22:13;100707.81;;;8.61;100.00
37764;BME280;23602;51.084;7.090;2023-02-18T11:24:42;100706.25;;;8.67;100.00
37764;BME280;23602;51.084;7.090;2023-02-18T11:27:21;100724.63;;;8.70;100.00
37764;BME280;23602;51.084;7.090;2023-02-18T11:29:49;100736.66;;;8.74;100.00
37764;BME280;23602;51.084;7.090;2023-02-18T11:32:15;100723.91;;;8.76;100.00
37764;BME280;23602;51.084;7.090;2023-02-18T11:34:40;100733.50;;;8.70;100.00
37764;BME280;23602;51.084;7.090;2023-02-18T11:37:17;100745.75;;;8.65;100.00
37764;BME280;23602;51.084;7.090;2023-02-18T11:39:44;100735.06;;;8.65;100.00
37764;BME280;23602;51.084;7.090;2023-02-18T11:42:14;100754.84;;;8.64;100.00
37764;BME280;23602;51.084;7.090;2023-02-18T11:44:48;100762.03;;;8.63;100.00
37764;BME280;23602;51.084;7.090;2023-02-18T11:47:30;100756.03;;;8.61;100.00
37764;BME280;23602;51.084;7.090;2023-02-18T11:52:38;100780.59;;;8.65;100.00
37764;BME280;23602;51.084;7.090;2023-02-18T11:55:05;100771.38;;;8.67;100.00
37764;BME280;23602;51.084;7.090;2023-02-18T11:57:34;100782.47;;;8.64;100.00
37764;BME280;23602;51.084;7.090;2023-02-18T12:00:01;100781.28;;;8.67;100.00
37764;BME280;23602;51.084;7.090;2023-02-18T12:02:36;100781.56;;;8.72;100.00
37764;BME280;23602;51.084;7.090;2023-02-18T12:05:15;100790.88;;;8.76;100.00
37764;BME280;23602;51.084;7.090;2023-02-18T12:07:42;100787.91;;;8.71;100.00
37764;BME280;23602;51.084;7.090;2023-02-18T12:10:22;100788.69;;;8.79;100.00
37764;BME280;23602;51.084;7.090;2023-02-18T12:12:57;100801.97;;;8.73;100.00
37764;BME280;23602;51.084;7.090;2023-02-18T12:15:31;100794.69;;;8.81;100.00
37764;BME280;23602;51.084;7.090;2023-02-18T12:18:10;100785.88;;;8.73;100.00
37764;BME280;23602;51.084;7.090;2023-02-18T12:26:12;100781.06;;;8.68;100.00
37764;BME280;23602;51.084;7.090;2023-02-18T12:28:38;100783.94;;;8.67;100.00
37764;BME280;23602;51.084;7.090;2023-02-18T12:34:06;100805.28;;;8.75;100.00
37764;BME280;23602;51.084;7.090;2023-02-18T12:36:45;100800.13;;;8.73;100.00
37764;BME280;23602;51.084;7.090;2023-02-18T12:54:51;100830.09;;;8.77;100.00
37764;BME280;23602;51.084;7.090;2023-02-18T13:05:37;100832.81;;;8.69;100.00
37764;BME280;23602;51.084;7.090;2023-02-18T13:08:22;100833.28;;;8.72;100.00
37764;BME280;23602;51.084;7.090;2023-02-18T13:13:20;100829.13;;;8.70;100.00
37764;BME280;23602;51.084;7.090;2023-02-18T13:15:52;100838.81;;;8.71;100.00
37764;BME280;23602;51.084;7.090;2023-02-18T13:21:06;100831.09;;;8.76;100.00
37764;BME280;23602;51.084;7.090;2023-02-18T13:23:33;100830.88;;;8.77;100.00
37764;BME280;23602;51.084;7.090;2023-02-18T13:26:03;100842.00;;;8.74;100.00
37764;BME280;23602;51.084;7.090;2023-02-18T13:39:16;100826.06;;;8.73;100.00
37764;BME280;23602;51.084;7.090;2023-02-18T13:41:44;100833.41;;;8.79;100.00
37764;BME280;23602;51.084;7.090;2023-02-18T13:46:51;100839.97;;;8.76;100.00
37764;BME280;23602;51.084;7.090;2023-02-18T13:49:19;100834.75;;;8.75;100.00
37764;BME280;23602;51.084;7.090;2023-02-18T13:51:46;100831.72;;;8.78;100.00
37764;BME280;23602;51.084;7.090;2023-02-18T13:56:58;100840.59;;;8.78;100.00
37764;BME280;23602;51.084;7.090;2023-02-18T14:01:55;100840.41;;;8.80;100.00
37764;BME280;23602;51.084;7.090;2023-02-18T14:09:51;100836.53;;;8.82;100.00
37764;BME280;23602;51.084;7.090;2023-02-18T14:15:01;100842.44;;;8.78;100.00
37764;BME280;23602;51.084;7.090;2023-02-18T14:17:37;100853.16;;;8.78;100.00
37764;BME280;23602;51.084;7.090;2023-02-18T14:27:26;100850.63;;;8.84;100.00
37764;BME280;23602;51.084;7.090;2023-02-18T14:29:51;100842.56;;;8.84;100.00
37764;BME280;23602;51.084;7.090;2023-02-18T14:32:17;100841.91;;;8.82;100.00
37764;BME280;23602;51.084;7.090;2023-02-18T14:44:48;100850.72;;;8.91;100.00
37764;BME280;23602;51.084;7.090;2023-02-18T14:49:58;100847.19;;;8.90;100.00
37764;BME280;23602;51.084;7.090;2023-02-18T14:54:51;100847.84;;;8.93;100.00
37764;BME280;23602;51.084;7.090;2023-02-18T14:57:21;100846.19;;;8.92;100.00
37764;BME280;23602;51.084;7.090;2023-02-18T14:59:56;100847.03;;;8.92;100.00
37764;BME280;23602;51.084;7.090;2023-02-18T15:02:22;100842.31;;;8.94;100.00
37764;BME280;23602;51.084;7.090;2023-02-18T15:04:51;100842.31;;;8.94;100.00
37764;BME280;23602;51.084;7.090;2023-02-18T15:07:19;100847.84;;;8.93;100.00
37764;BME280;23602;51.084;7.090;2023-02-18T15:09:46;100843.44;;;9.00;100.00